PROFILE

 METAR AND TAF INFORMATION
ADDS - METARS form results

(0617 UTC 22 September 2019)
http://aviationweather.gov/metar/data/
 
LFML 220600Z AUTO 10006KT 050V130 9999 -RA FEW015/// SCT033/// OVC050/// ///CB 19/17 Q1012 TEMPO 1500 SHRA BR
LFML 220530Z AUTO 07010KT 6000 -RA FEW032/// OVC054/// ///CB 19/18 Q1012 TEMPO 1500 SHRA BR
TAF AMD LFML 220514Z 2205/2309 12010KT 9999 BKN040 TX25/2212Z TN14/2305Z TEMPO 2205/2210 1500 SHRA BR BKN020 FEW025CB TEMPO 2210/2214 14020G30KT BECMG 2222/2224 33020KT BECMG 2301/2303 CAVOK 

 AIRPORT MAP

 RUNWAY INFORMATION
Runway 13L Runway length 11483 ft Runway width 148 ft
Runway elevation 8 ft Runway displaced threshold 1116 ft Runway heading 134
Runway 31R Runway length 11483 ft Runway width 148 ft
Runway elevation 53 ft Runway displaced threshold 2165 ft Runway heading 314
Runway 13R Runway length 7776 ft Runway width 148 ft
Runway elevation 8 ft Runway displaced threshold 0 ft Runway heading 134
Runway 31L Runway length 7776 ft Runway width 148 ft
Runway elevation 61 ft Runway displaced threshold 345 ft Runway heading 314

 AIRPORT FREQUENCIES
Type APP Name APP/RADAR Frequency 120.2 MHZ
Type ATIS Name ATIS Frequency 125.35 MHZ
Type GND Name GND Frequency 121.9 MHZ
Type INFO Name INFO Frequency 118.85 MHZ
Type PFLT Name PERFLIGHT Frequency 121.725 MHZ
Type TWR Name TWR Frequency 118.375 MHZ

 AIRPORT NEAR NAVIGATION AIDS
Type VOR-DME Name Marseille/Provence Frequency 108800 KHZ